sensor_id;sensor_type;location;lat;lon;timestamp;P1;durP1;ratioP1;P2;durP2;ratioP2
39694;SDS011;25367;-35.352;149.036;2022-10-10T00:00:13;1.95;;;0.30;;
39694;SDS011;25367;-35.352;149.036;2022-10-10T00:02:42;13.77;;;1.63;;
39694;SDS011;25367;-35.352;149.036;2022-10-10T00:05:11;5.63;;;0.43;;
39694;SDS011;25367;-35.352;149.036;2022-10-10T00:07:41;4.13;;;0.45;;
39694;SDS011;25367;-35.352;149.036;2022-10-10T00:10:11;3.22;;;0.32;;
39694;SDS011;25367;-35.352;149.036;2022-10-10T00:12:41;6.65;;;0.57;;
39694;SDS011;25367;-35.352;149.036;2022-10-10T00:15:14;4.13;;;0.65;;
39694;SDS011;25367;-35.352;149.036;2022-10-10T00:17:44;3.55;;;0.50;;
39694;SDS011;25367;-35.352;149.036;2022-10-10T00:20:14;3.40;;;0.40;;
39694;SDS011;25367;-35.352;149.036;2022-10-10T00:22:44;4.72;;;0.40;;
39694;SDS011;25367;-35.352;149.036;2022-10-10T00:25:14;11.43;;;0.68;;
39694;SDS011;25367;-35.352;149.036;2022-10-10T00:27:43;0.63;;;0.30;;
39694;SDS011;25367;-35.352;149.036;2022-10-10T00:30:16;2.67;;;0.50;;
39694;SDS011;25367;-35.352;149.036;2022-10-10T00:32:45;4.20;;;0.52;;
39694;SDS011;25367;-35.352;149.036;2022-10-10T00:35:14;8.23;;;0.68;;
39694;SDS011;25367;-35.352;149.036;2022-10-10T00:37:44;3.38;;;0.40;;
39694;SDS011;25367;-35.352;149.036;2022-10-10T00:40:13;2.35;;;0.50;;
39694;SDS011;25367;-35.352;149.036;2022-10-10T00:42:43;4.65;;;0.43;;
39694;SDS011;25367;-35.352;149.036;2022-10-10T00:45:23;3.67;;;0.40;;
39694;SDS011;25367;-35.352;149.036;2022-10-10T00:47:56;4.47;;;0.57;;
39694;SDS011;25367;-35.352;149.036;2022-10-10T00:50:29;10.52;;;0.50;;
39694;SDS011;25367;-35.352;149.036;2022-10-10T00:53:00;3.00;;;0.80;;
39694;SDS011;25367;-35.352;149.036;2022-10-10T00:55:32;5.53;;;0.90;;
39694;SDS011;25367;-35.352;149.036;2022-10-10T00:58:03;4.55;;;0.32;;
39694;SDS011;25367;-35.352;149.036;2022-10-10T01:00:36;4.97;;;0.45;;
39694;SDS011;25367;-35.352;149.036;2022-10-10T01:03:06;4.05;;;0.50;;
39694;SDS011;25367;-35.352;149.036;2022-10-10T01:05:35;6.70;;;0.77;;
39694;SDS011;25367;-35.352;149.036;2022-10-10T01:08:05;7.35;;;0.82;;
39694;SDS011;25367;-35.352;149.036;2022-10-10T01:10:40;2.42;;;0.30;;
39694;SDS011;25367;-35.352;149.036;2022-10-10T01:13:19;3.45;;;0.40;;
39694;SDS011;25367;-35.352;149.036;2022-10-10T01:16:00;4.75;;;0.60;;
39694;SDS011;25367;-35.352;149.036;2022-10-10T01:18:35;6.95;;;0.77;;
39694;SDS011;25367;-35.352;149.036;2022-10-10T01:21:14;1.10;;;0.25;;
39694;SDS011;25367;-35.352;149.036;2022-10-10T01:23:54;3.05;;;0.50;;
39694;SDS011;25367;-35.352;149.036;2022-10-10T01:29:50;3.00;;;0.52;;
39694;SDS011;25367;-35.352;149.036;2022-10-10T01:32:25;2.85;;;0.20;;
39694;SDS011;25367;-35.352;149.036;2022-10-10T01:35:06;1.13;;;0.32;;
39694;SDS011;25367;-35.352;149.036;2022-10-10T01:37:51;6.13;;;0.60;;
39694;SDS011;25367;-35.352;149.036;2022-10-10T01:40:28;5.18;;;1.10;;
39694;SDS011;25367;-35.352;149.036;2022-10-10T01:43:01;2.20;;;0.60;;
39694;SDS011;25367;-35.352;149.036;2022-10-10T01:45:36;2.50;;;0.40;;
39694;SDS011;25367;-35.352;149.036;2022-10-10T01:48:10;7.28;;;0.93;;
39694;SDS011;25367;-35.352;149.036;2022-10-10T01:50:43;0.25;;;0.13;;
39694;SDS011;25367;-35.352;149.036;2022-10-10T01:53:25;1.27;;;0.38;;
39694;SDS011;25367;-35.352;149.036;2022-10-10T01:56:06;2.88;;;0.30;;
39694;SDS011;25367;-35.352;149.036;2022-10-10T01:58:45;3.35;;;0.77;;
39694;SDS011;25367;-35.352;149.036;2022-10-10T02:04:00;4.03;;;0.52;;
39694;SDS011;25367;-35.352;149.036;2022-10-10T02:06:37;1.80;;;0.47;;
39694;SDS011;25367;-35.352;149.036;2022-10-10T02:11:40;2.67;;;0.52;;
39694;SDS011;25367;-35.352;149.036;2022-10-10T02:14:13;0.85;;;0.30;;
39694;SDS011;25367;-35.352;149.036;2022-10-10T02:16:48;3.00;;;0.65;;
39694;SDS011;25367;-35.352;149.036;2022-10-10T02:19:21;1.85;;;0.47;;
39694;SDS011;25367;-35.352;149.036;2022-10-10T02:21:52;4.45;;;0.65;;
39694;SDS011;25367;-35.352;149.036;2022-10-10T02:24:22;3.63;;;0.47;;
39694;SDS011;25367;-35.352;149.036;2022-10-10T02:26:53;2.83;;;0.60;;
39694;SDS011;25367;-35.352;149.036;2022-10-10T02:29:29;2.08;;;0.65;;
39694;SDS011;25367;-35.352;149.036;2022-10-10T02:32:07;2.05;;;0.50;;
39694;SDS011;25367;-35.352;149.036;2022-10-10T02:34:39;1.67;;;0.50;;
39694;SDS011;25367;-35.352;149.036;2022-10-10T02:37:12;3.45;;;0.80;;
39694;SDS011;25367;-35.352;149.036;2022-10-10T02:39:43;4.53;;;0.63;;
39694;SDS011;25367;-35.352;149.036;2022-10-10T02:42:15;5.80;;;0.60;;
39694;SDS011;25367;-35.352;149.036;2022-10-10T02:44:47;8.70;;;0.85;;
39694;SDS011;25367;-35.352;149.036;2022-10-10T02:47:20;4.88;;;0.50;;
39694;SDS011;25367;-35.352;149.036;2022-10-10T02:49:50;1.63;;;0.40;;
39694;SDS011;25367;-35.352;149.036;2022-10-10T02:52:19;3.83;;;0.57;;
39694;SDS011;25367;-35.352;149.036;2022-10-10T02:54:49;5.75;;;0.70;;
39694;SDS011;25367;-35.352;149.036;2022-10-10T02:57:18;4.50;;;0.40;;
39694;SDS011;25367;-35.352;149.036;2022-10-10T02:59:48;4.63;;;0.45;;
39694;SDS011;25367;-35.352;149.036;2022-10-10T03:02:20;2.80;;;0.52;;
39694;SDS011;25367;-35.352;149.036;2022-10-10T03:04:50;3.13;;;0.77;;
39694;SDS011;25367;-35.352;149.036;2022-10-10T03:07:19;6.07;;;0.95;;
39694;SDS011;25367;-35.352;149.036;2022-10-10T03:09:49;3.08;;;0.20;;
39694;SDS011;25367;-35.352;149.036;2022-10-10T03:12:18;5.75;;;0.50;;
39694;SDS011;25367;-35.352;149.036;2022-10-10T03:14:47;9.18;;;0.80;;
39694;SDS011;25367;-35.352;149.036;2022-10-10T03:17:17;4.38;;;0.90;;
39694;SDS011;25367;-35.352;149.036;2022-10-10T03:19:52;4.63;;;0.43;;
39694;SDS011;25367;-35.352;149.036;2022-10-10T03:22:21;3.70;;;0.35;;
39694;SDS011;25367;-35.352;149.036;2022-10-10T03:24:50;5.07;;;0.57;;
39694;SDS011;25367;-35.352;149.036;2022-10-10T03:27:20;2.60;;;0.73;;
39694;SDS011;25367;-35.352;149.036;2022-10-10T03:29:49;1.75;;;0.80;;
39694;SDS011;25367;-35.352;149.036;2022-10-10T03:32:22;4.00;;;0.93;;
39694;SDS011;25367;-35.352;149.036;2022-10-10T03:34:52;7.25;;;0.77;;
39694;SDS011;25367;-35.352;149.036;2022-10-10T03:37:21;0.95;;;0.40;;
39694;SDS011;25367;-35.352;149.036;2022-10-10T03:39:51;9.85;;;1.38;;
39694;SDS011;25367;-35.352;149.036;2022-10-10T03:42:20;3.10;;;0.30;;
39694;SDS011;25367;-35.352;149.036;2022-10-10T03:44:49;5.60;;;1.02;;
39694;SDS011;25367;-35.352;149.036;2022-10-10T03:47:22;4.45;;;0.60;;
39694;SDS011;25367;-35.352;149.036;2022-10-10T03:49:51;11.00;;;1.30;;
39694;SDS011;25367;-35.352;149.036;2022-10-10T03:52:20;1.42;;;0.47;;
39694;SDS011;25367;-35.352;149.036;2022-10-10T03:54:50;3.30;;;0.50;;
39694;SDS011;25367;-35.352;149.036;2022-10-10T03:57:19;3.35;;;0.40;;
39694;SDS011;25367;-35.352;149.036;2022-10-10T03:59:49;6.30;;;0.60;;
39694;SDS011;25367;-35.352;149.036;2022-10-10T04:02:21;6.97;;;0.73;;
39694;SDS011;25367;-35.352;149.036;2022-10-10T04:04:51;8.32;;;1.42;;
39694;SDS011;25367;-35.352;149.036;2022-10-10T04:07:20;7.78;;;0.60;;
39694;SDS011;25367;-35.352;149.036;2022-10-10T04:09:49;2.53;;;0.60;;
39694;SDS011;25367;-35.352;149.036;2022-10-10T04:12:19;4.75;;;1.00;;
39694;SDS011;25367;-35.352;149.036;2022-10-10T04:14:48;4.47;;;0.80;;
39694;SDS011;25367;-35.352;149.036;2022-10-10T04:17:17;7.03;;;1.02;;
39694;SDS011;25367;-35.352;149.036;2022-10-10T04:19:49;8.25;;;1.10;;
39694;SDS011;25367;-35.352;149.036;2022-10-10T04:22:18;6.32;;;0.60;;
39694;SDS011;25367;-35.352;149.036;2022-10-10T04:24:47;5.97;;;0.70;;
39694;SDS011;25367;-35.352;149.036;2022-10-10T04:27:17;3.67;;;0.85;;
39694;SDS011;25367;-35.352;149.036;2022-10-10T04:29:46;4.85;;;0.80;;
39694;SDS011;25367;-35.352;149.036;2022-10-10T04:32:16;4.47;;;0.95;;
39694;SDS011;25367;-35.352;149.036;2022-10-10T04:34:48;25.50;;;2.17;;
39694;SDS011;25367;-35.352;149.036;2022-10-10T04:37:18;1.70;;;0.80;;
39694;SDS011;25367;-35.352;149.036;2022-10-10T04:39:47;2.58;;;0.70;;
39694;SDS011;25367;-35.352;149.036;2022-10-10T04:42:17;4.75;;;0.50;;
39694;SDS011;25367;-35.352;149.036;2022-10-10T04:44:47;4.15;;;0.77;;
39694;SDS011;25367;-35.352;149.036;2022-10-10T04:47:19;1.48;;;0.57;;
39694;SDS011;25367;-35.352;149.036;2022-10-10T04:49:52;3.17;;;0.65;;
39694;SDS011;25367;-35.352;149.036;2022-10-10T04:52:21;3.65;;;0.50;;
39694;SDS011;25367;-35.352;149.036;2022-10-10T04:54:51;1.00;;;0.40;;
39694;SDS011;25367;-35.352;149.036;2022-10-10T04:57:21;8.70;;;0.82;;
39694;SDS011;25367;-35.352;149.036;2022-10-10T04:59:51;3.50;;;0.63;;
39694;SDS011;25367;-35.352;149.036;2022-10-10T05:02:20;9.30;;;0.98;;
39694;SDS011;25367;-35.352;149.036;2022-10-10T05:04:53;3.08;;;0.70;;
39694;SDS011;25367;-35.352;149.036;2022-10-10T05:07:22;2.30;;;0.70;;
39694;SDS011;25367;-35.352;149.036;2022-10-10T05:09:52;7.50;;;0.73;;
39694;SDS011;25367;-35.352;149.036;2022-10-10T05:12:21;3.08;;;0.70;;
39694;SDS011;25367;-35.352;149.036;2022-10-10T05:14:51;2.45;;;0.60;;
39694;SDS011;25367;-35.352;149.036;2022-10-10T05:17:20;2.28;;;0.60;;
39694;SDS011;25367;-35.352;149.036;2022-10-10T05:19:52;2.58;;;0.40;;
39694;SDS011;25367;-35.352;149.036;2022-10-10T05:22:22;3.43;;;0.83;;
39694;SDS011;25367;-35.352;149.036;2022-10-10T05:24:51;3.80;;;0.75;;
39694;SDS011;25367;-35.352;149.036;2022-10-10T05:27:21;0.40;;;0.15;;
39694;SDS011;25367;-35.352;149.036;2022-10-10T05:29:50;2.13;;;0.55;;
39694;SDS011;25367;-35.352;149.036;2022-10-10T05:32:19;10.77;;;0.75;;
39694;SDS011;25367;-35.352;149.036;2022-10-10T05:34:53;2.70;;;0.35;;
39694;SDS011;25367;-35.352;149.036;2022-10-10T05:37:22;6.72;;;0.63;;
39694;SDS011;25367;-35.352;149.036;2022-10-10T05:39:52;3.33;;;0.60;;
39694;SDS011;25367;-35.352;149.036;2022-10-10T05:42:21;4.07;;;0.47;;
39694;SDS011;25367;-35.352;149.036;2022-10-10T05:44:50;4.32;;;0.45;;
39694;SDS011;25367;-35.352;149.036;2022-10-10T05:47:20;5.65;;;0.70;;
39694;SDS011;25367;-35.352;149.036;2022-10-10T05:49:49;1.13;;;0.35;;
39694;SDS011;25367;-35.352;149.036;2022-10-10T05:52:21;0.40;;;0.30;;
39694;SDS011;25367;-35.352;149.036;2022-10-10T05:54:51;1.10;;;0.20;;
39694;SDS011;25367;-35.352;149.036;2022-10-10T05:57:21;3.22;;;0.65;;
39694;SDS011;25367;-35.352;149.036;2022-10-10T05:59:50;1.70;;;0.40;;
39694;SDS011;25367;-35.352;149.036;2022-10-10T06:02:19;1.83;;;0.50;;
39694;SDS011;25367;-35.352;149.036;2022-10-10T06:04:49;0.60;;;0.30;;
39694;SDS011;25367;-35.352;149.036;2022-10-10T06:07:22;2.97;;;0.47;;
39694;SDS011;25367;-35.352;149.036;2022-10-10T06:09:51;3.95;;;0.88;;
39694;SDS011;25367;-35.352;149.036;2022-10-10T06:12:20;7.53;;;1.08;;
39694;SDS011;25367;-35.352;149.036;2022-10-10T06:14:50;3.38;;;0.47;;
39694;SDS011;25367;-35.352;149.036;2022-10-10T06:17:19;1.67;;;0.40;;
39694;SDS011;25367;-35.352;149.036;2022-10-10T06:19:49;6.95;;;0.73;;
39694;SDS011;25367;-35.352;149.036;2022-10-10T06:22:21;3.75;;;0.70;;
39694;SDS011;25367;-35.352;149.036;2022-10-10T06:24:50;4.57;;;0.70;;
39694;SDS011;25367;-35.352;149.036;2022-10-10T06:27:20;2.78;;;0.47;;
39694;SDS011;25367;-35.352;149.036;2022-10-10T06:29:50;4.40;;;0.80;;
39694;SDS011;25367;-35.352;149.036;2022-10-10T06:32:20;1.25;;;0.40;;
39694;SDS011;25367;-35.352;149.036;2022-10-10T06:34:49;1.70;;;0.50;;
39694;SDS011;25367;-35.352;149.036;2022-10-10T06:37:20;3.75;;;0.52;;
39694;SDS011;25367;-35.352;149.036;2022-10-10T06:39:50;7.18;;;0.90;;
39694;SDS011;25367;-35.352;149.036;2022-10-10T06:42:19;1.30;;;0.47;;
39694;SDS011;25367;-35.352;149.036;2022-10-10T06:44:55;0.55;;;0.30;;
39694;SDS011;25367;-35.352;149.036;2022-10-10T06:47:24;4.18;;;0.90;;
39694;SDS011;25367;-35.352;149.036;2022-10-10T06:49:55;6.05;;;0.60;;
39694;SDS011;25367;-35.352;149.036;2022-10-10T06:52:25;7.97;;;0.80;;
39694;SDS011;25367;-35.352;149.036;2022-10-10T06:54:55;6.45;;;0.65;;
39694;SDS011;25367;-35.352;149.036;2022-10-10T06:57:25;3.88;;;0.82;;
39694;SDS011;25367;-35.352;149.036;2022-10-10T06:59:56;2.40;;;0.50;;
39694;SDS011;25367;-35.352;149.036;2022-10-10T07:02:25;6.78;;;0.70;;
39694;SDS011;25367;-35.352;149.036;2022-10-10T07:04:57;11.70;;;0.90;;
39694;SDS011;25367;-35.352;149.036;2022-10-10T07:07:27;5.30;;;0.77;;
39694;SDS011;25367;-35.352;149.036;2022-10-10T07:09:56;7.43;;;1.00;;
39694;SDS011;25367;-35.352;149.036;2022-10-10T07:12:25;5.13;;;0.70;;
39694;SDS011;25367;-35.352;149.036;2022-10-10T07:14:55;25.77;;;2.67;;
39694;SDS011;25367;-35.352;149.036;2022-10-10T07:17:24;18.98;;;1.55;;
39694;SDS011;25367;-35.352;149.036;2022-10-10T07:19:53;14.18;;;2.08;;
39694;SDS011;25367;-35.352;149.036;2022-10-10T07:22:25;3.33;;;0.98;;
39694;SDS011;25367;-35.352;149.036;2022-10-10T07:24:54;11.77;;;1.05;;
39694;SDS011;25367;-35.352;149.036;2022-10-10T07:27:23;7.97;;;1.45;;
39694;SDS011;25367;-35.352;149.036;2022-10-10T07:29:53;6.18;;;0.77;;
39694;SDS011;25367;-35.352;149.036;2022-10-10T07:32:22;14.93;;;1.35;;
39694;SDS011;25367;-35.352;149.036;2022-10-10T07:34:52;4.35;;;0.80;;
39694;SDS011;25367;-35.352;149.036;2022-10-10T07:37:23;6.32;;;0.65;;
39694;SDS011;25367;-35.352;149.036;2022-10-10T07:39:53;8.82;;;0.77;;
39694;SDS011;25367;-35.352;149.036;2022-10-10T07:42:22;5.68;;;0.88;;
39694;SDS011;25367;-35.352;149.036;2022-10-10T07:44:51;6.90;;;0.88;;
39694;SDS011;25367;-35.352;149.036;2022-10-10T07:47:21;7.80;;;0.80;;
39694;SDS011;25367;-35.352;149.036;2022-10-10T07:49:50;7.20;;;1.05;;
39694;SDS011;25367;-35.352;149.036;2022-10-10T07:52:20;8.20;;;0.93;;
39694;SDS011;25367;-35.352;149.036;2022-10-10T07:54:51;6.10;;;0.70;;
39694;SDS011;25367;-35.352;149.036;2022-10-10T07:57:20;8.15;;;1.05;;
39694;SDS011;25367;-35.352;149.036;2022-10-10T07:59:50;4.75;;;0.65;;
39694;SDS011;25367;-35.352;149.036;2022-10-10T08:02:19;6.93;;;1.05;;
39694;SDS011;25367;-35.352;149.036;2022-10-10T08:04:49;9.25;;;1.10;;
39694;SDS011;25367;-35.352;149.036;2022-10-10T08:07:18;7.68;;;0.90;;
39694;SDS011;25367;-35.352;149.036;2022-10-10T08:09:49;4.47;;;0.95;;
39694;SDS011;25367;-35.352;149.036;2022-10-10T08:12:19;7.28;;;1.23;;
39694;SDS011;25367;-35.352;149.036;2022-10-10T08:14:49;4.30;;;1.23;;
39694;SDS011;25367;-35.352;149.036;2022-10-10T08:17:18;8.57;;;0.82;;
39694;SDS011;25367;-35.352;149.036;2022-10-10T08:19:47;10.10;;;1.27;;
39694;SDS011;25367;-35.352;149.036;2022-10-10T08:22:17;6.28;;;0.80;;
39694;SDS011;25367;-35.352;149.036;2022-10-10T08:24:46;7.45;;;1.13;;
39694;SDS011;25367;-35.352;149.036;2022-10-10T08:27:19;18.25;;;1.73;;
39694;SDS011;25367;-35.352;149.036;2022-10-10T08:29:48;16.55;;;1.50;;
39694;SDS011;25367;-35.352;149.036;2022-10-10T08:32:17;5.60;;;0.80;;
39694;SDS011;25367;-35.352;149.036;2022-10-10T08:34:47;7.20;;;1.20;;
39694;SDS011;25367;-35.352;149.036;2022-10-10T08:37:16;4.63;;;0.98;;
39694;SDS011;25367;-35.352;149.036;2022-10-10T08:39:46;10.15;;;1.02;;
39694;SDS011;25367;-35.352;149.036;2022-10-10T08:42:19;9.43;;;1.13;;
39694;SDS011;25367;-35.352;149.036;2022-10-10T08:44:54;12.80;;;1.35;;
39694;SDS011;25367;-35.352;149.036;2022-10-10T08:47:29;6.93;;;0.98;;
39694;SDS011;25367;-35.352;149.036;2022-10-10T08:50:06;11.38;;;1.63;;
39694;SDS011;25367;-35.352;149.036;2022-10-10T08:52:44;7.85;;;1.30;;
39694;SDS011;25367;-35.352;149.036;2022-10-10T08:55:23;6.70;;;1.15;;
39694;SDS011;25367;-35.352;149.036;2022-10-10T08:57:57;8.25;;;1.13;;
39694;SDS011;25367;-35.352;149.036;2022-10-10T09:00:33;8.30;;;1.02;;
39694;SDS011;25367;-35.352;149.036;2022-10-10T09:03:12;6.68;;;1.00;;
39694;SDS011;25367;-35.352;149.036;2022-10-10T09:05:48;5.15;;;0.68;;
39694;SDS011;25367;-35.352;149.036;2022-10-10T09:08:30;9.38;;;0.68;;
39694;SDS011;25367;-35.352;149.036;2022-10-10T09:11:14;8.70;;;1.05;;
39694;SDS011;25367;-35.352;149.036;2022-10-10T09:13:56;6.93;;;1.10;;
39694;SDS011;25367;-35.352;149.036;2022-10-10T09:16:34;7.35;;;1.00;;
39694;SDS011;25367;-35.352;149.036;2022-10-10T09:19:10;15.98;;;1.20;;
39694;SDS011;25367;-35.352;149.036;2022-10-10T09:21:47;1.48;;;0.55;;
39694;SDS011;25367;-35.352;149.036;2022-10-10T09:24:18;6.00;;;0.88;;
39694;SDS011;25367;-35.352;149.036;2022-10-10T09:29:25;3.38;;;0.70;;
39694;SDS011;25367;-35.352;149.036;2022-10-10T09:31:57;5.70;;;0.77;;
39694;SDS011;25367;-35.352;149.036;2022-10-10T09:34:31;5.10;;;0.50;;
39694;SDS011;25367;-35.352;149.036;2022-10-10T09:37:08;2.95;;;0.70;;
39694;SDS011;25367;-35.352;149.036;2022-10-10T09:39:43;4.05;;;0.60;;
39694;SDS011;25367;-35.352;149.036;2022-10-10T09:42:24;2.83;;;0.70;;
39694;SDS011;25367;-35.352;149.036;2022-10-10T09:47:30;3.25;;;0.75;;
39694;SDS011;25367;-35.352;149.036;2022-10-10T09:49:59;3.17;;;0.47;;
39694;SDS011;25367;-35.352;149.036;2022-10-10T09:52:30;3.45;;;0.63;;
39694;SDS011;25367;-35.352;149.036;2022-10-10T09:55:00;4.68;;;0.80;;
39694;SDS011;25367;-35.352;149.036;2022-10-10T09:57:35;5.60;;;0.75;;
39694;SDS011;25367;-35.352;149.036;2022-10-10T10:00:23;4.05;;;0.70;;
39694;SDS011;25367;-35.352;149.036;2022-10-10T10:03:04;2.00;;;0.87;;
39694;SDS011;25367;-35.352;149.036;2022-10-10T10:05:38;1.92;;;0.50;;
39694;SDS011;25367;-35.352;149.036;2022-10-10T10:08:23;2.17;;;0.40;;
39694;SDS011;25367;-35.352;149.036;2022-10-10T10:10:54;0.85;;;0.40;;
39694;SDS011;25367;-35.352;149.036;2022-10-10T10:13:28;2.00;;;0.70;;
39694;SDS011;25367;-35.352;149.036;2022-10-10T10:16:00;2.75;;;0.77;;
39694;SDS011;25367;-35.352;149.036;2022-10-10T10:18:37;1.15;;;0.43;;
39694;SDS011;25367;-35.352;149.036;2022-10-10T10:21:12;3.70;;;0.50;;
39694;SDS011;25367;-35.352;149.036;2022-10-10T10:23:48;2.15;;;0.60;;
39694;SDS011;25367;-35.352;149.036;2022-10-10T10:26:20;4.78;;;0.55;;
39694;SDS011;25367;-35.352;149.036;2022-10-10T10:28:55;2.05;;;0.50;;
39694;SDS011;25367;-35.352;149.036;2022-10-10T10:34:24;2.17;;;0.57;;
39694;SDS011;25367;-35.352;149.036;2022-10-10T10:37:10;3.15;;;0.47;;
39694;SDS011;25367;-35.352;149.036;2022-10-10T10:39:55;2.00;;;0.68;;
39694;SDS011;25367;-35.352;149.036;2022-10-10T10:42:48;1.92;;;0.50;;
39694;SDS011;25367;-35.352;149.036;2022-10-10T10:45:37;2.40;;;0.55;;
39694;SDS011;25367;-35.352;149.036;2022-10-10T10:48:14;4.72;;;0.43;;
39694;SDS011;25367;-35.352;149.036;2022-10-10T10:50:53;1.85;;;0.60;;
39694;SDS011;25367;-35.352;149.036;2022-10-10T10:53:25;0.35;;;0.30;;
39694;SDS011;25367;-35.352;149.036;2022-10-10T10:56:05;1.40;;;0.50;;
39694;SDS011;25367;-35.352;149.036;2022-10-10T10:58:57;1.35;;;0.60;;
39694;SDS011;25367;-35.352;149.036;2022-10-10T11:01:50;2.97;;;0.40;;
39694;SDS011;25367;-35.352;149.036;2022-10-10T11:04:36;0.80;;;0.43;;
39694;SDS011;25367;-35.352;149.036;2022-10-10T11:07:16;0.38;;;0.35;;
39694;SDS011;25367;-35.352;149.036;2022-10-10T11:09:49;1.30;;;0.38;;
39694;SDS011;25367;-35.352;149.036;2022-10-10T11:12:36;0.80;;;0.38;;
39694;SDS011;25367;-35.352;149.036;2022-10-10T11:15:15;2.17;;;0.80;;
39694;SDS011;25367;-35.352;149.036;2022-10-10T11:17:51;1.45;;;0.40;;
39694;SDS011;25367;-35.352;149.036;2022-10-10T11:20:28;1.77;;;0.30;;
39694;SDS011;25367;-35.352;149.036;2022-10-10T11:23:04;3.88;;;0.73;;
39694;SDS011;25367;-35.352;149.036;2022-10-10T11:25:40;2.08;;;0.50;;
39694;SDS011;25367;-35.352;149.036;2022-10-10T11:28:14;3.17;;;0.60;;
39694;SDS011;25367;-35.352;149.036;2022-10-10T11:30:47;1.08;;;0.55;;
39694;SDS011;25367;-35.352;149.036;2022-10-10T11:33:23;1.30;;;0.52;;
39694;SDS011;25367;-35.352;149.036;2022-10-10T11:35:57;1.75;;;0.45;;
39694;SDS011;25367;-35.352;149.036;2022-10-10T11:38:29;1.17;;;0.25;;
39694;SDS011;25367;-35.352;149.036;2022-10-10T11:41:05;1.88;;;0.32;;
39694;SDS011;25367;-35.352;149.036;2022-10-10T11:43:42;1.23;;;0.40;;
39694;SDS011;25367;-35.352;149.036;2022-10-10T11:46:17;8.43;;;1.90;;
39694;SDS011;25367;-35.352;149.036;2022-10-10T11:48:56;11.93;;;2.20;;
39694;SDS011;25367;-35.352;149.036;2022-10-10T11:51:43;2.85;;;1.30;;
39694;SDS011;25367;-35.352;149.036;2022-10-10T11:54:30;4.75;;;1.30;;
39694;SDS011;25367;-35.352;149.036;2022-10-10T11:57:07;4.72;;;1.55;;
39694;SDS011;25367;-35.352;149.036;2022-10-10T11:59:41;4.82;;;2.20;;
39694;SDS011;25367;-35.352;149.036;2022-10-10T12:02:15;7.22;;;2.05;;
39694;SDS011;25367;-35.352;149.036;2022-10-10T12:04:49;11.90;;;2.58;;
39694;SDS011;25367;-35.352;149.036;2022-10-10T12:07:19;4.57;;;2.28;;
39694;SDS011;25367;-35.352;149.036;2022-10-10T12:09:54;5.07;;;2.30;;
39694;SDS011;25367;-35.352;149.036;2022-10-10T12:12:26;5.00;;;2.40;;
39694;SDS011;25367;-35.352;149.036;2022-10-10T12:15:02;4.97;;;2.38;;
39694;SDS011;25367;-35.352;149.036;2022-10-10T12:17:35;11.95;;;2.80;;
39694;SDS011;25367;-35.352;149.036;2022-10-10T12:23:17;4.10;;;2.10;;
39694;SDS011;25367;-35.352;149.036;2022-10-10T12:25:50;4.80;;;1.80;;
39694;SDS011;25367;-35.352;149.036;2022-10-10T12:28:24;5.95;;;1.98;;
39694;SDS011;25367;-35.352;149.036;2022-10-10T12:34:04;6.82;;;2.05;;
39694;SDS011;25367;-35.352;149.036;2022-10-10T12:39:34;7.57;;;1.80;;
39694;SDS011;25367;-35.352;149.036;2022-10-10T12:44:56;7.60;;;1.70;;
39694;SDS011;25367;-35.352;149.036;2022-10-10T12:47:30;12.55;;;1.52;;
39694;SDS011;25367;-35.352;149.036;2022-10-10T12:50:17;4.15;;;1.38;;
39694;SDS011;25367;-35.352;149.036;2022-10-10T12:52:53;4.18;;;1.70;;
39694;SDS011;25367;-35.352;149.036;2022-10-10T12:55:24;3.40;;;1.67;;
39694;SDS011;25367;-35.352;149.036;2022-10-10T12:57:55;4.57;;;1.48;;
39694;SDS011;25367;-35.352;149.036;2022-10-10T13:00:35;3.35;;;1.15;;
39694;SDS011;25367;-35.352;149.036;2022-10-10T13:03:09;3.35;;;1.15;;
39694;SDS011;25367;-35.352;149.036;2022-10-10T13:05:42;3.42;;;1.27;;
39694;SDS011;25367;-35.352;149.036;2022-10-10T13:08:14;4.15;;;1.13;;
39694;SDS011;25367;-35.352;149.036;2022-10-10T13:11:00;6.57;;;1.10;;
39694;SDS011;25367;-35.352;149.036;2022-10-10T13:13:30;2.67;;;1.10;;
39694;SDS011;25367;-35.352;149.036;2022-10-10T13:16:04;4.30;;;1.35;;
39694;SDS011;25367;-35.352;149.036;2022-10-10T13:18:35;2.25;;;1.00;;
39694;SDS011;25367;-35.352;149.036;2022-10-10T13:21:07;3.92;;;1.30;;
39694;SDS011;25367;-35.352;149.036;2022-10-10T13:23:42;5.85;;;1.10;;
39694;SDS011;25367;-35.352;149.036;2022-10-10T13:26:19;3.80;;;1.08;;
39694;SDS011;25367;-35.352;149.036;2022-10-10T13:28:50;3.13;;;0.82;;
39694;SDS011;25367;-35.352;149.036;2022-10-10T13:31:21;3.33;;;1.10;;
39694;SDS011;25367;-35.352;149.036;2022-10-10T13:33:55;3.40;;;0.90;;
39694;SDS011;25367;-35.352;149.036;2022-10-10T13:36:26;1.75;;;0.73;;
39694;SDS011;25367;-35.352;149.036;2022-10-10T13:38:58;3.75;;;1.10;;
39694;SDS011;25367;-35.352;149.036;2022-10-10T13:41:27;1.48;;;0.80;;
39694;SDS011;25367;-35.352;149.036;2022-10-10T13:43:57;2.22;;;0.98;;
39694;SDS011;25367;-35.352;149.036;2022-10-10T13:46:28;1.80;;;0.70;;
39694;SDS011;25367;-35.352;149.036;2022-10-10T13:48:59;4.43;;;0.80;;
39694;SDS011;25367;-35.352;149.036;2022-10-10T13:51:42;1.77;;;0.70;;
39694;SDS011;25367;-35.352;149.036;2022-10-10T13:57:12;1.88;;;0.68;;
39694;SDS011;25367;-35.352;149.036;2022-10-10T13:59:44;0.90;;;0.47;;
39694;SDS011;25367;-35.352;149.036;2022-10-10T14:02:16;2.75;;;0.73;;
39694;SDS011;25367;-35.352;149.036;2022-10-10T14:04:46;1.85;;;0.77;;
39694;SDS011;25367;-35.352;149.036;2022-10-10T14:07:19;2.38;;;0.75;;
39694;SDS011;25367;-35.352;149.036;2022-10-10T14:09:53;1.55;;;0.60;;
39694;SDS011;25367;-35.352;149.036;2022-10-10T14:12:25;2.00;;;0.75;;
39694;SDS011;25367;-35.352;149.036;2022-10-10T14:14:56;1.50;;;0.80;;
39694;SDS011;25367;-35.352;149.036;2022-10-10T14:17:27;1.55;;;0.63;;
39694;SDS011;25367;-35.352;149.036;2022-10-10T14:19:57;1.50;;;0.60;;
39694;SDS011;25367;-35.352;149.036;2022-10-10T14:22:26;4.50;;;0.82;;
39694;SDS011;25367;-35.352;149.036;2022-10-10T14:24:57;3.05;;;1.13;;
39694;SDS011;25367;-35.352;149.036;2022-10-10T14:27:27;4.38;;;0.95;;
39694;SDS011;25367;-35.352;149.036;2022-10-10T14:29:56;5.88;;;1.17;;
39694;SDS011;25367;-35.352;149.036;2022-10-10T14:32:25;12.32;;;0.63;;
39694;SDS011;25367;-35.352;149.036;2022-10-10T14:34:55;2.13;;;0.98;;
39694;SDS011;25367;-35.352;149.036;2022-10-10T14:37:24;5.20;;;0.43;;
39694;SDS011;25367;-35.352;149.036;2022-10-10T14:39:55;3.70;;;0.70;;
39694;SDS011;25367;-35.352;149.036;2022-10-10T14:42:26;1.55;;;0.70;;
39694;SDS011;25367;-35.352;149.036;2022-10-10T14:44:55;3.40;;;0.70;;
39694;SDS011;25367;-35.352;149.036;2022-10-10T14:47:24;1.23;;;0.50;;
39694;SDS011;25367;-35.352;149.036;2022-10-10T14:49:54;1.92;;;0.75;;
39694;SDS011;25367;-35.352;149.036;2022-10-10T14:52:23;2.15;;;0.82;;
39694;SDS011;25367;-35.352;149.036;2022-10-10T14:54:52;2.30;;;0.60;;
39694;SDS011;25367;-35.352;149.036;2022-10-10T14:57:24;1.40;;;0.80;;
39694;SDS011;25367;-35.352;149.036;2022-10-10T14:59:53;1.10;;;0.40;;
39694;SDS011;25367;-35.352;149.036;2022-10-10T15:02:23;1.65;;;0.57;;
39694;SDS011;25367;-35.352;149.036;2022-10-10T15:04:52;1.40;;;0.70;;
39694;SDS011;25367;-35.352;149.036;2022-10-10T15:07:22;0.85;;;0.45;;
39694;SDS011;25367;-35.352;149.036;2022-10-10T15:09:51;1.35;;;0.60;;